Airfield :
LOGIN :

Register | Disclaimer

   EN    FR    IT 

 










Legend :    VFR   Marginal VFR   IFR   Intensive IFR   Very Intensive IFR
Visi :
Ceiling :
>= 8 km
>= 3000ft
5 to 8 km
1000 to 3000 ft
1500m to 5 km
500 to 1000 ft
800 to 1500m
200 to 500 ft
< 800m
< 200 ft
Symbols :   Thunderstorms  Fog  Heavy snow  Heavy precipitations  Wind > 20 kt
SIGMETs :     Misc.  Thunderstorms  Icing  Turbulence  Mountain Waves  Volcanic Ashes






- Airport Elevation : 17 ft
- IATA code : GRQ


EHGG - Groningen Eelde

CURRENT METAR :
  • 061355Z AUTO 29005KT 260V320 9999 FEW019 SCT026 BKN038 03/01 Q1013 REDZ NOSIG

EXPIRED METARs :
  • 061325Z AUTO 27004KT 240V300 9999 FEW017 BKN021 OVC025 03/01 Q1013 NOSIG
  • 061255Z AUTO 27005KT 9999 OVC015/// 03/01 Q1013 NOSIG
  • 061225Z AUTO 28004KT 250V310 9999 BKN020/// OVC024/// 03/01 Q1012 NOSIG
  • 061155Z AUTO 28005KT 9999 SCT022 BKN032 OVC038 03/01 Q1012 NOSIG
  • 061125Z AUTO 27004KT 9999 BKN026/// OVC029/// 02/01 Q1012 NOSIG
  • 061055Z AUTO 28004KT 240V310 9999 FEW023 BKN033 OVC040 02/01 Q1012 NOSIG
  • 061025Z AUTO 29005KT 9999 SCT020 BKN023 OVC029 02/01 Q1012 REDZ NOSIG
  • 060955Z AUTO 27006KT 7000 FEW016 BKN020 OVC024 02/01 Q1012 BECMG 9999
  • 060925Z AUTO 27004KT 7000 -DZ FEW016/// BKN021/// BKN024/// 02/01 Q1012 REDZ BECMG 9999

TAF TAF EHGG
Valid from the 06 at 12:00 until the 07 at 18:00 UTC


061100Z 0612/0718 30006KT 9999 BKN030
PROB30
TEMPO 0612/0620 7000 -SHRA SCT020TCU
PROB40 0712/0718 1200 BR BKN002
PROB30 0712/0718 0800 FG BKN001



MET'MAP, your aeronautical weather chart ! - Copyright ORBIFLY December 2007 - Disclaimer

ORBIFLY MET'MAP TEAM :

Programming & Development : Alexandra Zaïnal
Original concept : Baudouin d'Aumeries
Technical & hardware support : Manuel Goepfert
Assistance : Marc-Olivier Méhu




SOURCES & CREDITS :

   NOAA